This is the latest recevied weather packets stored in our database for station/object PY2VE-13. If no packets are shown the sender has not sent any weather packets the latest 10 day(s).
| Time | Temp. | Humidity | Pressure | Rain* | Wind** | Luminosity | Snow |
|---|---|---|---|---|---|---|---|
| 1778026735 | 28.89° C | 42% | 1024.1 hPa | - | - | - | - |
| 1778025835 | 29.44° C | 41% | 1024 hPa | - | - | - | - |
| 1778024935 | 28.89° C | 41% | 1024 hPa | - | - | - | - |
| 1778024035 | 28.89° C | 40% | 1024 hPa | - | - | - | - |
| 1778023135 | 29.44° C | 39% | 1023.8 hPa | - | - | - | - |
| 1778022235 | 29.44° C | 39% | 1023.7 hPa | - | - | - | - |
| 1778021334 | 30° C | 37% | 1023.4 hPa | - | - | - | - |
| 1778020434 | 30° C | 37% | 1023.2 hPa | - | - | - | - |
| 1778019534 | 30° C | 37% | 1023 hPa | - | - | - | - |
| 1778018634 | 30.56° C | 37% | 1022.8 hPa | - | - | - | - |
| 1778017734 | 30.56° C | 37% | 1022.7 hPa | - | - | - | - |
| 1778016834 | 30.56° C | 37% | 1022.6 hPa | - | - | - | - |
| 1778015934 | 30.56° C | 35% | 1022.5 hPa | - | - | - | - |
| 1778015034 | 31.11° C | 35% | 1022.2 hPa | - | - | - | - |
| 1778014134 | 31.67° C | 34% | 1022.2 hPa | - | - | - | - |
| 1778013234 | 32.22° C | 33% | 1022.1 hPa | - | - | - | - |
| 1778012334 | 32.22° C | 32% | 1021.8 hPa | - | - | - | - |
| 1778011434 | 32.22° C | 31% | 1021.8 hPa | - | - | - | - |
| 1778010534 | 32.78° C | 32% | 1021.7 hPa | - | - | - | - |
| 1778009634 | 32.78° C | 31% | 1021.6 hPa | - | - | - | - |
| 1778008734 | 37.78° C | 23% | 1020.3 hPa | - | - | - | - |
| 1778007834 | 53.33° C | 10% | 1017 hPa | - | - | - | - |
| 1778006934 | 52.78° C | 11% | 1017.2 hPa | - | - | - | - |
| 1778006034 | 33.89° C | 29% | 1021.4 hPa | - | - | - | - |
| 1778005134 | 32.22° C | 31% | 1021.8 hPa | - | - | - | - |
* Rain since midnight (hover to see other rain measurements)
** Current wind speed in m/s (hover to see current wind gust speed)